sensor_id;sensor_type;location;lat;lon;timestamp;P1;durP1;ratioP1;P2;durP2;ratioP2
19675;SDS011;39539;52.202;9.876;2023-04-25T00:01:02;6.68;;;5.97;;
19675;SDS011;39539;52.202;9.876;2023-04-25T00:03:28;8.02;;;6.63;;
19675;SDS011;39539;52.202;9.876;2023-04-25T00:05:54;8.82;;;6.07;;
19675;SDS011;39539;52.202;9.876;2023-04-25T00:08:21;9.30;;;6.47;;
19675;SDS011;39539;52.202;9.876;2023-04-25T00:10:47;8.70;;;6.53;;
19675;SDS011;39539;52.202;9.876;2023-04-25T00:13:13;6.55;;;5.88;;
19675;SDS011;39539;52.202;9.876;2023-04-25T00:15:39;6.95;;;6.25;;
19675;SDS011;39539;52.202;9.876;2023-04-25T00:18:06;8.30;;;4.75;;
19675;SDS011;39539;52.202;9.876;2023-04-25T00:20:32;6.93;;;4.82;;
19675;SDS011;39539;52.202;9.876;2023-04-25T00:22:58;9.52;;;4.78;;
19675;SDS011;39539;52.202;9.876;2023-04-25T00:25:23;9.52;;;4.93;;
19675;SDS011;39539;52.202;9.876;2023-04-25T00:27:49;7.78;;;4.75;;
19675;SDS011;39539;52.202;9.876;2023-04-25T00:30:15;9.60;;;5.22;;
19675;SDS011;39539;52.202;9.876;2023-04-25T00:32:40;6.90;;;4.53;;
19675;SDS011;39539;52.202;9.876;2023-04-25T00:35:06;7.72;;;4.78;;
19675;SDS011;39539;52.202;9.876;2023-04-25T00:37:31;8.25;;;4.80;;
19675;SDS011;39539;52.202;9.876;2023-04-25T00:39:57;9.02;;;5.45;;
19675;SDS011;39539;52.202;9.876;2023-04-25T00:42:23;10.90;;;5.38;;
19675;SDS011;39539;52.202;9.876;2023-04-25T00:44:50;8.05;;;7.00;;
19675;SDS011;39539;52.202;9.876;2023-04-25T00:47:17;8.85;;;7.10;;
19675;SDS011;39539;52.202;9.876;2023-04-25T00:49:42;11.70;;;7.40;;
19675;SDS011;39539;52.202;9.876;2023-04-25T00:52:08;8.38;;;5.80;;
19675;SDS011;39539;52.202;9.876;2023-04-25T00:54:34;10.55;;;6.05;;
19675;SDS011;39539;52.202;9.876;2023-04-25T00:56:59;9.82;;;6.45;;
19675;SDS011;39539;52.202;9.876;2023-04-25T00:59:25;10.07;;;6.43;;
19675;SDS011;39539;52.202;9.876;2023-04-25T01:01:52;9.88;;;8.13;;
19675;SDS011;39539;52.202;9.876;2023-04-25T01:04:18;9.43;;;8.27;;
19675;SDS011;39539;52.202;9.876;2023-04-25T01:06:43;9.55;;;8.50;;
19675;SDS011;39539;52.202;9.876;2023-04-25T01:09:10;9.43;;;8.15;;
19675;SDS011;39539;52.202;9.876;2023-04-25T01:11:35;9.77;;;8.75;;
19675;SDS011;39539;52.202;9.876;2023-04-25T01:14:01;8.73;;;7.93;;
19675;SDS011;39539;52.202;9.876;2023-04-25T01:16:27;9.13;;;8.23;;
19675;SDS011;39539;52.202;9.876;2023-04-25T01:18:53;10.27;;;8.63;;
19675;SDS011;39539;52.202;9.876;2023-04-25T01:21:19;9.82;;;8.82;;
19675;SDS011;39539;52.202;9.876;2023-04-25T01:23:45;9.43;;;8.52;;
19675;SDS011;39539;52.202;9.876;2023-04-25T01:26:12;9.38;;;8.27;;
19675;SDS011;39539;52.202;9.876;2023-04-25T01:28:38;9.18;;;7.35;;
19675;SDS011;39539;52.202;9.876;2023-04-25T01:31:06;8.10;;;6.55;;
19675;SDS011;39539;52.202;9.876;2023-04-25T01:33:31;11.95;;;9.68;;
19675;SDS011;39539;52.202;9.876;2023-04-25T01:35:57;10.07;;;9.07;;
19675;SDS011;39539;52.202;9.876;2023-04-25T01:38:22;11.52;;;9.52;;
19675;SDS011;39539;52.202;9.876;2023-04-25T01:40:48;10.75;;;9.52;;
19675;SDS011;39539;52.202;9.876;2023-04-25T01:43:15;11.63;;;9.32;;
19675;SDS011;39539;52.202;9.876;2023-04-25T01:45:41;8.10;;;7.03;;
19675;SDS011;39539;52.202;9.876;2023-04-25T01:48:11;13.27;;;7.63;;
19675;SDS011;39539;52.202;9.876;2023-04-25T01:50:38;11.43;;;7.90;;
19675;SDS011;39539;52.202;9.876;2023-04-25T01:53:05;12.20;;;7.82;;
19675;SDS011;39539;52.202;9.876;2023-04-25T01:55:30;11.07;;;10.00;;
19675;SDS011;39539;52.202;9.876;2023-04-25T01:57:56;12.15;;;10.02;;
19675;SDS011;39539;52.202;9.876;2023-04-25T02:00:21;13.15;;;9.65;;
19675;SDS011;39539;52.202;9.876;2023-04-25T02:02:47;11.18;;;9.98;;
19675;SDS011;39539;52.202;9.876;2023-04-25T02:05:13;10.15;;;9.15;;
19675;SDS011;39539;52.202;9.876;2023-04-25T02:07:38;13.43;;;10.82;;
19675;SDS011;39539;52.202;9.876;2023-04-25T02:10:04;11.45;;;9.85;;
19675;SDS011;39539;52.202;9.876;2023-04-25T02:12:30;11.95;;;10.60;;
19675;SDS011;39539;52.202;9.876;2023-04-25T02:14:56;11.45;;;10.23;;
19675;SDS011;39539;52.202;9.876;2023-04-25T02:17:21;12.55;;;10.50;;
19675;SDS011;39539;52.202;9.876;2023-04-25T02:19:46;11.70;;;10.23;;
19675;SDS011;39539;52.202;9.876;2023-04-25T02:22:12;12.32;;;10.23;;
19675;SDS011;39539;52.202;9.876;2023-04-25T02:24:38;12.95;;;10.68;;
19675;SDS011;39539;52.202;9.876;2023-04-25T02:27:04;13.40;;;7.97;;
19675;SDS011;39539;52.202;9.876;2023-04-25T02:29:29;9.52;;;7.25;;
19675;SDS011;39539;52.202;9.876;2023-04-25T02:31:55;12.43;;;10.95;;
19675;SDS011;39539;52.202;9.876;2023-04-25T02:34:20;11.32;;;9.80;;
19675;SDS011;39539;52.202;9.876;2023-04-25T02:36:45;11.95;;;10.75;;
19675;SDS011;39539;52.202;9.876;2023-04-25T02:39:14;12.00;;;10.80;;
19675;SDS011;39539;52.202;9.876;2023-04-25T02:41:39;13.48;;;10.35;;
19675;SDS011;39539;52.202;9.876;2023-04-25T02:44:04;10.75;;;9.77;;
19675;SDS011;39539;52.202;9.876;2023-04-25T02:46:30;11.27;;;10.18;;
19675;SDS011;39539;52.202;9.876;2023-04-25T02:48:55;10.95;;;7.65;;
19675;SDS011;39539;52.202;9.876;2023-04-25T02:51:20;10.57;;;9.65;;
19675;SDS011;39539;52.202;9.876;2023-04-25T02:53:47;10.65;;;9.65;;
19675;SDS011;39539;52.202;9.876;2023-04-25T02:56:12;10.77;;;9.80;;
19675;SDS011;39539;52.202;9.876;2023-04-25T02:58:38;11.15;;;10.07;;
19675;SDS011;39539;52.202;9.876;2023-04-25T03:01:03;10.85;;;7.22;;
19675;SDS011;39539;52.202;9.876;2023-04-25T03:03:28;7.25;;;5.07;;
19675;SDS011;39539;52.202;9.876;2023-04-25T03:05:54;12.00;;;5.47;;
19675;SDS011;39539;52.202;9.876;2023-04-25T03:08:19;9.15;;;5.38;;
19675;SDS011;39539;52.202;9.876;2023-04-25T03:10:44;9.73;;;4.32;;
19675;SDS011;39539;52.202;9.876;2023-04-25T03:13:10;7.30;;;4.13;;
19675;SDS011;39539;52.202;9.876;2023-04-25T03:15:35;9.50;;;4.75;;
19675;SDS011;39539;52.202;9.876;2023-04-25T03:18:02;10.68;;;4.82;;
19675;SDS011;39539;52.202;9.876;2023-04-25T03:20:27;9.55;;;4.63;;
19675;SDS011;39539;52.202;9.876;2023-04-25T03:22:53;7.97;;;4.43;;
19675;SDS011;39539;52.202;9.876;2023-04-25T03:25:18;15.32;;;4.55;;
19675;SDS011;39539;52.202;9.876;2023-04-25T03:27:44;10.18;;;4.13;;
19675;SDS011;39539;52.202;9.876;2023-04-25T03:30:09;13.10;;;4.07;;
19675;SDS011;39539;52.202;9.876;2023-04-25T03:32:35;14.63;;;4.10;;
19675;SDS011;39539;52.202;9.876;2023-04-25T03:35:00;10.32;;;4.75;;
19675;SDS011;39539;52.202;9.876;2023-04-25T03:37:26;11.98;;;4.70;;
19675;SDS011;39539;52.202;9.876;2023-04-25T03:39:51;8.38;;;4.18;;
19675;SDS011;39539;52.202;9.876;2023-04-25T03:42:17;12.95;;;4.63;;
19675;SDS011;39539;52.202;9.876;2023-04-25T03:44:43;8.57;;;4.97;;
19675;SDS011;39539;52.202;9.876;2023-04-25T03:47:08;9.43;;;4.22;;
19675;SDS011;39539;52.202;9.876;2023-04-25T03:49:34;6.78;;;4.05;;
19675;SDS011;39539;52.202;9.876;2023-04-25T03:52:00;10.98;;;4.57;;
19675;SDS011;39539;52.202;9.876;2023-04-25T03:54:27;14.05;;;5.25;;
19675;SDS011;39539;52.202;9.876;2023-04-25T03:56:53;10.32;;;4.57;;
19675;SDS011;39539;52.202;9.876;2023-04-25T03:59:18;11.45;;;4.90;;
19675;SDS011;39539;52.202;9.876;2023-04-25T04:01:43;15.32;;;4.43;;
19675;SDS011;39539;52.202;9.876;2023-04-25T04:04:09;13.07;;;4.88;;
19675;SDS011;39539;52.202;9.876;2023-04-25T04:06:34;7.93;;;4.18;;
19675;SDS011;39539;52.202;9.876;2023-04-25T04:09:00;8.05;;;4.40;;
19675;SDS011;39539;52.202;9.876;2023-04-25T04:11:26;12.80;;;4.95;;
19675;SDS011;39539;52.202;9.876;2023-04-25T04:13:51;11.70;;;4.70;;
19675;SDS011;39539;52.202;9.876;2023-04-25T04:16:17;10.98;;;4.30;;
19675;SDS011;39539;52.202;9.876;2023-04-25T04:18:44;13.98;;;4.65;;
19675;SDS011;39539;52.202;9.876;2023-04-25T04:21:10;12.13;;;4.70;;
19675;SDS011;39539;52.202;9.876;2023-04-25T04:23:35;10.82;;;4.45;;
19675;SDS011;39539;52.202;9.876;2023-04-25T04:26:01;17.27;;;4.72;;
19675;SDS011;39539;52.202;9.876;2023-04-25T04:28:26;10.23;;;4.95;;
19675;SDS011;39539;52.202;9.876;2023-04-25T04:30:51;11.13;;;4.38;;
19675;SDS011;39539;52.202;9.876;2023-04-25T04:33:17;11.85;;;4.95;;
19675;SDS011;39539;52.202;9.876;2023-04-25T04:35:46;10.48;;;4.75;;
19675;SDS011;39539;52.202;9.876;2023-04-25T04:38:12;12.40;;;4.65;;
19675;SDS011;39539;52.202;9.876;2023-04-25T04:40:40;11.25;;;4.10;;
19675;SDS011;39539;52.202;9.876;2023-04-25T04:43:08;9.48;;;4.05;;
19675;SDS011;39539;52.202;9.876;2023-04-25T04:45:35;10.95;;;4.57;;
19675;SDS011;39539;52.202;9.876;2023-04-25T04:48:04;10.13;;;4.05;;
19675;SDS011;39539;52.202;9.876;2023-04-25T04:50:30;13.43;;;4.80;;
19675;SDS011;39539;52.202;9.876;2023-04-25T04:52:57;16.85;;;4.90;;
19675;SDS011;39539;52.202;9.876;2023-04-25T04:55:23;10.60;;;4.55;;
19675;SDS011;39539;52.202;9.876;2023-04-25T04:57:48;12.63;;;4.55;;
19675;SDS011;39539;52.202;9.876;2023-04-25T05:00:14;12.07;;;4.40;;
19675;SDS011;39539;52.202;9.876;2023-04-25T05:02:40;13.27;;;4.85;;
19675;SDS011;39539;52.202;9.876;2023-04-25T05:05:06;12.68;;;4.53;;
19675;SDS011;39539;52.202;9.876;2023-04-25T05:07:32;17.77;;;4.68;;
19675;SDS011;39539;52.202;9.876;2023-04-25T05:09:57;12.50;;;6.28;;
19675;SDS011;39539;52.202;9.876;2023-04-25T05:12:23;10.60;;;5.53;;
19675;SDS011;39539;52.202;9.876;2023-04-25T05:14:48;14.15;;;5.80;;
19675;SDS011;39539;52.202;9.876;2023-04-25T05:17:13;9.30;;;5.15;;
19675;SDS011;39539;52.202;9.876;2023-04-25T05:19:39;10.18;;;5.85;;
19675;SDS011;39539;52.202;9.876;2023-04-25T05:22:04;9.82;;;5.07;;
19675;SDS011;39539;52.202;9.876;2023-04-25T05:24:30;16.33;;;6.03;;
19675;SDS011;39539;52.202;9.876;2023-04-25T05:26:56;12.52;;;5.93;;
19675;SDS011;39539;52.202;9.876;2023-04-25T05:29:21;13.80;;;6.10;;
19675;SDS011;39539;52.202;9.876;2023-04-25T05:31:47;15.50;;;5.65;;
19675;SDS011;39539;52.202;9.876;2023-04-25T05:34:13;11.52;;;5.25;;
19675;SDS011;39539;52.202;9.876;2023-04-25T05:36:38;12.75;;;5.90;;
19675;SDS011;39539;52.202;9.876;2023-04-25T05:39:04;11.05;;;4.93;;
19675;SDS011;39539;52.202;9.876;2023-04-25T05:41:31;13.68;;;5.45;;
19675;SDS011;39539;52.202;9.876;2023-04-25T05:43:56;11.75;;;4.90;;
19675;SDS011;39539;52.202;9.876;2023-04-25T05:46:22;11.45;;;5.32;;
19675;SDS011;39539;52.202;9.876;2023-04-25T05:48:47;14.73;;;5.90;;
19675;SDS011;39539;52.202;9.876;2023-04-25T05:51:13;10.13;;;5.10;;
19675;SDS011;39539;52.202;9.876;2023-04-25T05:53:38;11.20;;;4.97;;
19675;SDS011;39539;52.202;9.876;2023-04-25T05:56:03;11.02;;;5.30;;
19675;SDS011;39539;52.202;9.876;2023-04-25T05:58:29;12.10;;;4.22;;
19675;SDS011;39539;52.202;9.876;2023-04-25T06:00:55;12.43;;;4.80;;
19675;SDS011;39539;52.202;9.876;2023-04-25T06:03:20;9.02;;;4.68;;
19675;SDS011;39539;52.202;9.876;2023-04-25T06:05:46;11.23;;;4.45;;
19675;SDS011;39539;52.202;9.876;2023-04-25T06:08:11;10.50;;;4.38;;
19675;SDS011;39539;52.202;9.876;2023-04-25T06:10:37;12.25;;;3.95;;
19675;SDS011;39539;52.202;9.876;2023-04-25T06:13:03;10.57;;;4.85;;
19675;SDS011;39539;52.202;9.876;2023-04-25T06:15:29;10.40;;;3.88;;
19675;SDS011;39539;52.202;9.876;2023-04-25T06:17:57;11.07;;;4.22;;
19675;SDS011;39539;52.202;9.876;2023-04-25T06:20:23;10.50;;;4.30;;
19675;SDS011;39539;52.202;9.876;2023-04-25T06:22:49;9.95;;;4.15;;
19675;SDS011;39539;52.202;9.876;2023-04-25T06:25:16;7.55;;;4.07;;
19675;SDS011;39539;52.202;9.876;2023-04-25T06:27:42;9.77;;;4.40;;
19675;SDS011;39539;52.202;9.876;2023-04-25T06:30:08;8.35;;;4.43;;
19675;SDS011;39539;52.202;9.876;2023-04-25T06:32:34;11.57;;;4.63;;
19675;SDS011;39539;52.202;9.876;2023-04-25T06:35:00;12.13;;;4.80;;
19675;SDS011;39539;52.202;9.876;2023-04-25T06:37:26;10.88;;;4.43;;
19675;SDS011;39539;52.202;9.876;2023-04-25T06:39:51;13.77;;;3.97;;
19675;SDS011;39539;52.202;9.876;2023-04-25T06:42:17;9.88;;;4.10;;
19675;SDS011;39539;52.202;9.876;2023-04-25T06:44:43;9.48;;;3.67;;
19675;SDS011;39539;52.202;9.876;2023-04-25T06:47:09;8.80;;;3.80;;
19675;SDS011;39539;52.202;9.876;2023-04-25T06:49:34;9.82;;;3.83;;
19675;SDS011;39539;52.202;9.876;2023-04-25T06:52:01;10.98;;;3.88;;
19675;SDS011;39539;52.202;9.876;2023-04-25T06:54:26;8.00;;;3.75;;
19675;SDS011;39539;52.202;9.876;2023-04-25T06:56:54;8.13;;;2.92;;
19675;SDS011;39539;52.202;9.876;2023-04-25T06:59:20;10.43;;;3.10;;
19675;SDS011;39539;52.202;9.876;2023-04-25T07:01:46;8.82;;;3.10;;
19675;SDS011;39539;52.202;9.876;2023-04-25T07:04:11;8.48;;;2.80;;
19675;SDS011;39539;52.202;9.876;2023-04-25T07:06:36;7.33;;;2.60;;
19675;SDS011;39539;52.202;9.876;2023-04-25T07:09:07;6.60;;;2.33;;
19675;SDS011;39539;52.202;9.876;2023-04-25T07:11:35;8.38;;;1.88;;
19675;SDS011;39539;52.202;9.876;2023-04-25T07:14:01;10.27;;;2.80;;
19675;SDS011;39539;52.202;9.876;2023-04-25T07:16:26;7.05;;;2.40;;
19675;SDS011;39539;52.202;9.876;2023-04-25T07:18:51;8.40;;;2.53;;
19675;SDS011;39539;52.202;9.876;2023-04-25T07:21:17;8.18;;;2.65;;
19675;SDS011;39539;52.202;9.876;2023-04-25T07:23:42;7.20;;;3.08;;
19675;SDS011;39539;52.202;9.876;2023-04-25T07:26:08;6.60;;;2.45;;
19675;SDS011;39539;52.202;9.876;2023-04-25T07:28:33;7.30;;;2.80;;
19675;SDS011;39539;52.202;9.876;2023-04-25T07:30:59;6.22;;;2.65;;
19675;SDS011;39539;52.202;9.876;2023-04-25T07:33:24;7.55;;;2.55;;
19675;SDS011;39539;52.202;9.876;2023-04-25T07:35:51;5.88;;;2.55;;
19675;SDS011;39539;52.202;9.876;2023-04-25T07:38:17;5.97;;;2.80;;
19675;SDS011;39539;52.202;9.876;2023-04-25T07:40:42;8.25;;;3.35;;
19675;SDS011;39539;52.202;9.876;2023-04-25T07:43:08;5.22;;;2.90;;
19675;SDS011;39539;52.202;9.876;2023-04-25T07:45:33;6.35;;;2.50;;
19675;SDS011;39539;52.202;9.876;2023-04-25T07:47:59;5.50;;;2.67;;
19675;SDS011;39539;52.202;9.876;2023-04-25T07:50:24;5.28;;;2.30;;
19675;SDS011;39539;52.202;9.876;2023-04-25T07:52:50;6.03;;;2.50;;
19675;SDS011;39539;52.202;9.876;2023-04-25T07:55:15;7.63;;;2.58;;
19675;SDS011;39539;52.202;9.876;2023-04-25T07:57:41;8.23;;;2.33;;
19675;SDS011;39539;52.202;9.876;2023-04-25T08:00:07;5.38;;;2.72;;
19675;SDS011;39539;52.202;9.876;2023-04-25T08:02:34;5.53;;;2.50;;
19675;SDS011;39539;52.202;9.876;2023-04-25T08:05:01;6.78;;;2.60;;
19675;SDS011;39539;52.202;9.876;2023-04-25T08:07:27;8.15;;;2.88;;
19675;SDS011;39539;52.202;9.876;2023-04-25T08:09:53;5.05;;;2.90;;
19675;SDS011;39539;52.202;9.876;2023-04-25T08:12:19;5.32;;;2.60;;
19675;SDS011;39539;52.202;9.876;2023-04-25T08:14:44;6.75;;;2.60;;
19675;SDS011;39539;52.202;9.876;2023-04-25T08:17:10;11.38;;;3.85;;
19675;SDS011;39539;52.202;9.876;2023-04-25T08:19:36;7.32;;;2.88;;
19675;SDS011;39539;52.202;9.876;2023-04-25T08:22:02;6.28;;;3.30;;
19675;SDS011;39539;52.202;9.876;2023-04-25T08:24:28;8.60;;;3.28;;
19675;SDS011;39539;52.202;9.876;2023-04-25T08:26:53;4.95;;;2.60;;
19675;SDS011;39539;52.202;9.876;2023-04-25T08:29:19;6.40;;;2.53;;
19675;SDS011;39539;52.202;9.876;2023-04-25T08:31:45;5.78;;;2.83;;
19675;SDS011;39539;52.202;9.876;2023-04-25T08:34:12;9.50;;;3.00;;
19675;SDS011;39539;52.202;9.876;2023-04-25T08:36:37;6.00;;;2.42;;
19675;SDS011;39539;52.202;9.876;2023-04-25T08:39:03;6.30;;;2.50;;
19675;SDS011;39539;52.202;9.876;2023-04-25T08:41:29;5.47;;;2.05;;
19675;SDS011;39539;52.202;9.876;2023-04-25T08:43:55;3.85;;;2.20;;
19675;SDS011;39539;52.202;9.876;2023-04-25T08:46:22;4.68;;;2.50;;
19675;SDS011;39539;52.202;9.876;2023-04-25T08:48:48;4.30;;;1.67;;
19675;SDS011;39539;52.202;9.876;2023-04-25T08:51:19;4.82;;;1.80;;
19675;SDS011;39539;52.202;9.876;2023-04-25T08:53:49;5.57;;;1.77;;
19675;SDS011;39539;52.202;9.876;2023-04-25T08:56:16;4.85;;;1.80;;
19675;SDS011;39539;52.202;9.876;2023-04-25T08:58:43;3.40;;;1.25;;
19675;SDS011;39539;52.202;9.876;2023-04-25T09:01:11;11.57;;;1.83;;
19675;SDS011;39539;52.202;9.876;2023-04-25T09:03:37;3.40;;;1.30;;
19675;SDS011;39539;52.202;9.876;2023-04-25T09:06:03;3.95;;;1.40;;
19675;SDS011;39539;52.202;9.876;2023-04-25T09:08:28;3.85;;;1.38;;
19675;SDS011;39539;52.202;9.876;2023-04-25T09:10:55;4.20;;;1.50;;
19675;SDS011;39539;52.202;9.876;2023-04-25T09:13:27;6.35;;;1.73;;
19675;SDS011;39539;52.202;9.876;2023-04-25T09:15:54;5.80;;;1.83;;
19675;SDS011;39539;52.202;9.876;2023-04-25T09:18:30;4.45;;;1.88;;
19675;SDS011;39539;52.202;9.876;2023-04-25T09:23:40;4.45;;;2.20;;
19675;SDS011;39539;52.202;9.876;2023-04-25T09:26:10;3.80;;;1.88;;
19675;SDS011;39539;52.202;9.876;2023-04-25T09:28:40;4.22;;;2.25;;
19675;SDS011;39539;52.202;9.876;2023-04-25T09:31:06;4.20;;;1.90;;
19675;SDS011;39539;52.202;9.876;2023-04-25T09:33:32;3.85;;;2.22;;
19675;SDS011;39539;52.202;9.876;2023-04-25T09:36:07;5.43;;;2.30;;
19675;SDS011;39539;52.202;9.876;2023-04-25T09:38:40;6.43;;;1.92;;
19675;SDS011;39539;52.202;9.876;2023-04-25T09:41:09;5.25;;;2.13;;
19675;SDS011;39539;52.202;9.876;2023-04-25T09:43:35;3.92;;;1.80;;
19675;SDS011;39539;52.202;9.876;2023-04-25T09:46:02;4.22;;;2.00;;
19675;SDS011;39539;52.202;9.876;2023-04-25T09:48:28;4.75;;;1.63;;
19675;SDS011;39539;52.202;9.876;2023-04-25T09:51:10;3.88;;;1.65;;
19675;SDS011;39539;52.202;9.876;2023-04-25T09:53:43;4.70;;;1.80;;
19675;SDS011;39539;52.202;9.876;2023-04-25T09:56:11;2.47;;;1.35;;
19675;SDS011;39539;52.202;9.876;2023-04-25T09:58:38;5.75;;;1.50;;
19675;SDS011;39539;52.202;9.876;2023-04-25T10:01:06;3.97;;;1.60;;
19675;SDS011;39539;52.202;9.876;2023-04-25T10:03:34;4.78;;;1.30;;
19675;SDS011;39539;52.202;9.876;2023-04-25T10:06:01;4.07;;;1.40;;
19675;SDS011;39539;52.202;9.876;2023-04-25T10:08:33;4.55;;;1.77;;
19675;SDS011;39539;52.202;9.876;2023-04-25T10:11:02;3.60;;;1.27;;
19675;SDS011;39539;52.202;9.876;2023-04-25T10:13:32;3.28;;;1.60;;
19675;SDS011;39539;52.202;9.876;2023-04-25T10:15:59;4.75;;;1.30;;
19675;SDS011;39539;52.202;9.876;2023-04-25T10:18:26;5.10;;;1.75;;
19675;SDS011;39539;52.202;9.876;2023-04-25T10:20:57;4.18;;;1.85;;
19675;SDS011;39539;52.202;9.876;2023-04-25T10:23:25;2.47;;;1.25;;
19675;SDS011;39539;52.202;9.876;2023-04-25T10:25:54;2.92;;;1.45;;
19675;SDS011;39539;52.202;9.876;2023-04-25T10:28:20;4.95;;;1.77;;
19675;SDS011;39539;52.202;9.876;2023-04-25T10:30:59;3.75;;;1.58;;
19675;SDS011;39539;52.202;9.876;2023-04-25T10:36:11;3.53;;;1.50;;
19675;SDS011;39539;52.202;9.876;2023-04-25T10:38:37;4.05;;;1.90;;
19675;SDS011;39539;52.202;9.876;2023-04-25T10:41:04;3.45;;;1.67;;
19675;SDS011;39539;52.202;9.876;2023-04-25T10:43:35;4.00;;;1.70;;
19675;SDS011;39539;52.202;9.876;2023-04-25T10:48:44;4.00;;;1.90;;
19675;SDS011;39539;52.202;9.876;2023-04-25T10:51:34;5.35;;;1.92;;
19675;SDS011;39539;52.202;9.876;2023-04-25T10:54:05;5.57;;;2.22;;
19675;SDS011;39539;52.202;9.876;2023-04-25T10:56:33;2.90;;;1.80;;
19675;SDS011;39539;52.202;9.876;2023-04-25T11:01:42;5.05;;;1.92;;
19675;SDS011;39539;52.202;9.876;2023-04-25T11:07:03;2.70;;;1.77;;
19675;SDS011;39539;52.202;9.876;2023-04-25T11:09:29;4.20;;;2.33;;
19675;SDS011;39539;52.202;9.876;2023-04-25T11:11:55;5.18;;;2.05;;
19675;SDS011;39539;52.202;9.876;2023-04-25T11:14:24;4.07;;;1.65;;
19675;SDS011;39539;52.202;9.876;2023-04-25T11:16:53;3.35;;;1.92;;
19675;SDS011;39539;52.202;9.876;2023-04-25T11:19:23;4.65;;;2.17;;
19675;SDS011;39539;52.202;9.876;2023-04-25T11:21:49;3.35;;;2.10;;
19675;SDS011;39539;52.202;9.876;2023-04-25T11:24:18;3.40;;;1.90;;
19675;SDS011;39539;52.202;9.876;2023-04-25T11:26:46;2.90;;;1.90;;
19675;SDS011;39539;52.202;9.876;2023-04-25T11:29:13;5.72;;;2.45;;
19675;SDS011;39539;52.202;9.876;2023-04-25T11:31:38;3.65;;;2.00;;
19675;SDS011;39539;52.202;9.876;2023-04-25T11:34:05;4.07;;;2.35;;
19675;SDS011;39539;52.202;9.876;2023-04-25T11:36:30;5.70;;;2.47;;
19675;SDS011;39539;52.202;9.876;2023-04-25T11:38:56;5.10;;;2.05;;
19675;SDS011;39539;52.202;9.876;2023-04-25T11:41:22;4.85;;;2.30;;
19675;SDS011;39539;52.202;9.876;2023-04-25T11:43:48;3.85;;;2.10;;
19675;SDS011;39539;52.202;9.876;2023-04-25T11:46:15;5.15;;;2.33;;
19675;SDS011;39539;52.202;9.876;2023-04-25T11:48:41;3.20;;;1.80;;
19675;SDS011;39539;52.202;9.876;2023-04-25T11:51:07;4.40;;;1.92;;
19675;SDS011;39539;52.202;9.876;2023-04-25T11:53:33;3.97;;;2.25;;
19675;SDS011;39539;52.202;9.876;2023-04-25T11:55:59;5.00;;;2.17;;
19675;SDS011;39539;52.202;9.876;2023-04-25T11:58:26;3.80;;;1.70;;
19675;SDS011;39539;52.202;9.876;2023-04-25T12:00:53;6.00;;;2.33;;
19675;SDS011;39539;52.202;9.876;2023-04-25T12:03:19;3.28;;;1.90;;
19675;SDS011;39539;52.202;9.876;2023-04-25T12:05:45;5.45;;;2.08;;
19675;SDS011;39539;52.202;9.876;2023-04-25T12:08:14;5.38;;;2.13;;
19675;SDS011;39539;52.202;9.876;2023-04-25T12:10:42;8.85;;;2.85;;
19675;SDS011;39539;52.202;9.876;2023-04-25T12:13:25;3.10;;;2.03;;
19675;SDS011;39539;52.202;9.876;2023-04-25T12:15:55;4.22;;;2.25;;
19675;SDS011;39539;52.202;9.876;2023-04-25T12:18:22;4.00;;;2.13;;
19675;SDS011;39539;52.202;9.876;2023-04-25T12:20:49;4.28;;;2.30;;
19675;SDS011;39539;52.202;9.876;2023-04-25T12:23:14;3.40;;;2.15;;
19675;SDS011;39539;52.202;9.876;2023-04-25T12:25:43;4.75;;;2.22;;
19675;SDS011;39539;52.202;9.876;2023-04-25T12:33:30;3.40;;;1.85;;
19675;SDS011;39539;52.202;9.876;2023-04-25T12:35:59;4.32;;;2.20;;
19675;SDS011;39539;52.202;9.876;2023-04-25T12:38:29;3.28;;;1.90;;
19675;SDS011;39539;52.202;9.876;2023-04-25T12:40:57;4.05;;;1.80;;
19675;SDS011;39539;52.202;9.876;2023-04-25T12:43:23;3.42;;;1.65;;
19675;SDS011;39539;52.202;9.876;2023-04-25T12:45:49;3.25;;;1.40;;
19675;SDS011;39539;52.202;9.876;2023-04-25T12:48:18;4.30;;;1.88;;
19675;SDS011;39539;52.202;9.876;2023-04-25T12:50:45;2.25;;;1.30;;
19675;SDS011;39539;52.202;9.876;2023-04-25T12:53:14;3.80;;;1.10;;
19675;SDS011;39539;52.202;9.876;2023-04-25T12:55:41;2.55;;;1.20;;
19675;SDS011;39539;52.202;9.876;2023-04-25T12:58:07;2.17;;;1.10;;
19675;SDS011;39539;52.202;9.876;2023-04-25T13:00:33;3.08;;;1.25;;
19675;SDS011;39539;52.202;9.876;2023-04-25T13:02:58;2.22;;;1.10;;
19675;SDS011;39539;52.202;9.876;2023-04-25T13:05:25;3.10;;;1.13;;
19675;SDS011;39539;52.202;9.876;2023-04-25T13:07:51;1.58;;;0.98;;
19675;SDS011;39539;52.202;9.876;2023-04-25T13:10:16;1.30;;;0.95;;
19675;SDS011;39539;52.202;9.876;2023-04-25T13:12:43;1.67;;;1.17;;
19675;SDS011;39539;52.202;9.876;2023-04-25T13:15:09;2.13;;;1.20;;
19675;SDS011;39539;52.202;9.876;2023-04-25T13:17:36;2.45;;;1.45;;
19675;SDS011;39539;52.202;9.876;2023-04-25T13:20:03;2.15;;;1.17;;
19675;SDS011;39539;52.202;9.876;2023-04-25T13:22:31;2.58;;;1.30;;
19675;SDS011;39539;52.202;9.876;2023-04-25T13:24:56;1.42;;;1.10;;
19675;SDS011;39539;52.202;9.876;2023-04-25T13:27:22;5.07;;;1.58;;
19675;SDS011;39539;52.202;9.876;2023-04-25T13:29:47;2.80;;;1.33;;
19675;SDS011;39539;52.202;9.876;2023-04-25T13:32:13;3.88;;;1.50;;
19675;SDS011;39539;52.202;9.876;2023-04-25T13:34:38;1.88;;;1.10;;
19675;SDS011;39539;52.202;9.876;2023-04-25T13:37:04;2.15;;;1.27;;
19675;SDS011;39539;52.202;9.876;2023-04-25T13:39:30;2.67;;;1.40;;
19675;SDS011;39539;52.202;9.876;2023-04-25T13:41:55;2.47;;;1.17;;
19675;SDS011;39539;52.202;9.876;2023-04-25T13:44:21;2.10;;;1.20;;
19675;SDS011;39539;52.202;9.876;2023-04-25T13:46:46;2.75;;;1.38;;
19675;SDS011;39539;52.202;9.876;2023-04-25T13:49:12;4.50;;;1.50;;
19675;SDS011;39539;52.202;9.876;2023-04-25T13:51:37;2.42;;;1.35;;
19675;SDS011;39539;52.202;9.876;2023-04-25T13:54:03;2.08;;;1.35;;
19675;SDS011;39539;52.202;9.876;2023-04-25T13:56:30;1.90;;;1.10;;
19675;SDS011;39539;52.202;9.876;2023-04-25T13:58:56;3.10;;;1.15;;
19675;SDS011;39539;52.202;9.876;2023-04-25T14:01:22;2.42;;;1.33;;
19675;SDS011;39539;52.202;9.876;2023-04-25T14:03:47;3.75;;;1.50;;
19675;SDS011;39539;52.202;9.876;2023-04-25T14:06:13;1.92;;;1.42;;
19675;SDS011;39539;52.202;9.876;2023-04-25T14:08:40;2.88;;;1.50;;
19675;SDS011;39539;52.202;9.876;2023-04-25T14:11:05;2.72;;;1.30;;
19675;SDS011;39539;52.202;9.876;2023-04-25T14:13:31;2.55;;;1.42;;
19675;SDS011;39539;52.202;9.876;2023-04-25T14:15:57;2.50;;;1.27;;
19675;SDS011;39539;52.202;9.876;2023-04-25T14:18:22;2.80;;;1.45;;
19675;SDS011;39539;52.202;9.876;2023-04-25T14:20:48;3.63;;;1.52;;
19675;SDS011;39539;52.202;9.876;2023-04-25T14:23:14;2.58;;;1.48;;
19675;SDS011;39539;52.202;9.876;2023-04-25T14:25:40;3.17;;;1.70;;
19675;SDS011;39539;52.202;9.876;2023-04-25T14:28:07;3.65;;;1.60;;
19675;SDS011;39539;52.202;9.876;2023-04-25T14:30:34;2.45;;;1.52;;
19675;SDS011;39539;52.202;9.876;2023-04-25T14:33:00;2.72;;;1.27;;
19675;SDS011;39539;52.202;9.876;2023-04-25T14:35:26;2.42;;;1.33;;
19675;SDS011;39539;52.202;9.876;2023-04-25T14:37:51;1.50;;;1.30;;
19675;SDS011;39539;52.202;9.876;2023-04-25T14:40:19;1.38;;;1.10;;
19675;SDS011;39539;52.202;9.876;2023-04-25T14:42:48;2.10;;;1.40;;
19675;SDS011;39539;52.202;9.876;2023-04-25T14:45:13;2.47;;;1.52;;
19675;SDS011;39539;52.202;9.876;2023-04-25T14:47:38;1.95;;;1.40;;
19675;SDS011;39539;52.202;9.876;2023-04-25T14:50:07;1.77;;;1.30;;
19675;SDS011;39539;52.202;9.876;2023-04-25T14:52:33;2.42;;;1.42;;
19675;SDS011;39539;52.202;9.876;2023-04-25T14:54:59;4.97;;;1.88;;
19675;SDS011;39539;52.202;9.876;2023-04-25T14:57:26;1.98;;;1.20;;